Antonino, KS

4:01 AM CDT on July 25, 2014 (GMT -0500)
Rural Ellis Co. (KKSHAYS15) Elev 2077 ft | 38.81 °N, 99.37 °W | Change Station
Active Advisory: Heat Advisory

Current weather conditions updated 7 minutes ago

Clear
Clear
78.4 °F
Feels Like 81 °F
N
10.4
Wind Variable Wind from SSW

Today is forecast to be Warmer than yesterday.

Today
High -- | Low -- °F
--% Chance of Precip.
Yesterday
High -- | Low -- °F
Precip. -- in
6:32 AM 8:55 PM
Waning Crescent, 2% visible
Pressure 29.88 in
Visibility 10.0 miles
Clouds Clear
Heat Index 81 °F
Dew Point 69 °F
Humidity 74%
Rainfall 0.00 in
Snow Depth Not available.
UV 0 out of 12
Pollen 6.60 out of 12
Air Quality Not available.
Flu Activity Not available.
METAR KHYS 250855Z AUTO 20011KT 10SM CLR 21/18 A2988 RMK AO1 54000

More Conditions Fewer Conditions

Pressure 29.88 in
Visibility 10.0 miles
Clouds Clear
Heat Index 81 °F
Dew Point 69 °F
Humidity 74%
Rainfall 0.00 in
Snow Depth Not available.
UV 0 out of 12
Pollen 6.60 out of 12
Air Quality Not available.
Flu Activity Not available.
METAR KHYS 250855Z AUTO 20011KT 10SM CLR 21/18 A2988 RMK AO1 54000

More Conditions Fewer Conditions

10-Day Weather Forecast

Almanac

Astronomy

Jul. 25, 2014 Rise Set
Actual Time 6:32 AM CDT 8:55 PM CDT
Civil Twilight 6:02 AM CDT 9:25 PM CDT
Nautical Twilight 5:25 AM CDT 10:02 PM CDT
Astronomical Twilight 4:43 AM CDT 10:43 PM CDT
Moon 5:33 AM CDT 7:53 PM CDT
Length of Visible Light 15h 22m
Length of Day
14h 22m
Tomorrow will be 1m 41s shorter.
Waning Crescent, 2% of the Moon is Illuminated
Today
Waning Crescent
Jul 26
New
Aug 3
First Quarter
Aug 10
Full
Aug 17
Last Quarter

Today's Extremes

State Highs State Lows

Community

WunderPhotos

Upload Photos

1,737,276 photos uploaded!

Nearby

Snow Depth

Station Depth Elevation
No new snow has been reported.

Earthquake Activity

City Distance Mag. Time & Date
Harper, Kansas 124 miles 3.3 7:24 AM CDT
2014-07-20
Harper, Kansas 135 miles 3.0 7:24 PM CDT
2014-07-19
Minimum magnitude displayed is 2.5.

Coastal Water Temperatures

Place Temperature
No Stations Reporting

Nearby Weather Stations

Station Location Temp. Heat Index Dew Point Humidity Wind Precip. Elev Updated Type
Rural Ellis Co., Hays, KS 78.4 °F 81 °F 69 °F 74% SSW  at  10.4 mph - / hr 2077 ft 3:54 AM CDT Normal
MesoWest YOCEME , Hays, KS 81 °F 79 °F - - North  at  - 0.00 in / hr 2047 ft 2:05 AM CDT MADIS
MesoWest WALKER , Walker, KS 81 °F 79 °F - - North  at  - 0.00 in / hr 1941 ft 12:50 AM CDT MADIS
Gorham Tele-Com, Gorham, KS 80.1 °F 83 °F 69 °F 69% NNE  at  9.4 mph 0.00 in / hr 1919 ft 4:01 AM CDT Rapid Fire

Show More Stations Show Fewer Stations